Archival Weather

Norman Y Mineta San Jose Intl

San Jose, California (KSJC)

Report from: Wednesday, January 31, 2024 2:53 PM PST
Current time: Monday, June 24, 2024 4:07 AM PDT

Current weather – Weather history – Daily summaries
Weather forecast

Present weatherLight rain
Temperature15.6°C (60.1°F)
Dew point7.8°C (46.0°F)
Winds 22 kts (11.3 m/s, 25.3 mph) Southeast (140°)
Peak wind 29 kts (14.9 m/s, 33.4 mph) Southeast (140°) at 22:39
Visibility10 mi. (16.1 km)
Clouds Few clouds 5,000 ft. (1,524 m)
Scattered clouds 7,000 ft. (2,134 m)
Ceiling: Overcast 8,500 ft. (2,591 m)
Altimeter29.66 in.Hg (1004 mB)
PrecipitiationTrace
Precip. events Rain ended 9:57 PM
Rain began 10:14 PM
Relative humidity60 %
Density altitude530 ft. (162 m)
Sea-level pressure100.4 kPa (1004 mB, 29.65 in.Hg)
Remarks Automated weather observing station with precipitation discriminator
Flight conditions Visual Meteorological Conditions
Raw dataKSJC 312253Z 14022KT 10SM -RA FEW050 SCT070 OVC085 16/08 A2966 RMK AO2 PK WND 14029/2239 RAE2157B14 SLP042 P0000 T01560078
An error has occurred. This application may no longer respond until reloaded. Reload 🗙